createdAt,value
2022-11-12T00:01:27.361Z,94205.16
2022-11-12T00:04:12.092Z,94204.25
2022-11-12T00:06:57.253Z,94204.88
2022-11-12T00:09:42.604Z,94197.25
2022-11-12T00:12:27.484Z,94192.78
2022-11-12T00:15:12.667Z,94197.06
2022-11-12T00:17:57.831Z,94192.38
2022-11-12T00:20:42.888Z,94197.94
2022-11-12T00:23:27.913Z,94194.72
2022-11-12T00:26:12.867Z,94194.94
2022-11-12T00:28:57.747Z,94188.97
2022-11-12T00:31:42.759Z,94187.38
2022-11-12T00:34:27.628Z,94187.38
2022-11-12T00:37:12.500Z,94190.59
2022-11-12T00:39:57.777Z,94190.94
2022-11-12T00:42:42.603Z,94194.94
2022-11-12T00:45:27.411Z,94190.25
2022-11-12T00:48:12.316Z,94185.41
2022-11-12T00:51:02.366Z,94189.13
2022-11-12T00:53:48.972Z,94184.47
2022-11-12T00:56:35.712Z,94190.81
2022-11-12T00:59:20.700Z,94188.84
2022-11-12T01:02:05.628Z,94187.88
2022-11-12T01:04:50.391Z,94186.06
2022-11-12T01:07:35.268Z,94185.09
2022-11-12T01:10:20.070Z,94191.25
2022-11-12T01:13:05.044Z,94186.06
2022-11-12T01:15:49.813Z,94189.47
2022-11-12T01:18:35.016Z,94191.59
2022-11-12T01:21:20.702Z,94194.38
2022-11-12T01:24:06.233Z,94190.69
2022-11-12T01:26:51.179Z,94189.06
2022-11-12T01:29:36.029Z,94190.19
2022-11-12T01:32:20.927Z,94179.72
2022-11-12T01:35:06.616Z,94178.72
2022-11-12T01:37:51.493Z,94176.03
2022-11-12T01:40:36.546Z,94172.34
2022-11-12T01:43:21.525Z,94175.44
2022-11-12T01:46:24.868Z,94172.22
2022-11-12T01:49:15.013Z,94167.03
2022-11-12T01:52:17.509Z,94167.81
2022-11-12T01:55:07.373Z,94155.41
2022-11-12T01:57:57.926Z,94158.16
2022-11-12T02:00:43.298Z,94153.94
2022-11-12T02:03:28.358Z,94146.03
2022-11-12T02:06:15.109Z,94147.03
2022-11-12T02:09:00.306Z,94144.44
2022-11-12T02:11:45.184Z,94145.41
2022-11-12T02:14:30.932Z,94150.13
2022-11-12T02:17:16.046Z,94141.56
2022-11-12T02:20:01.487Z,94139.94
2022-11-12T02:22:46.517Z,94135.91
2022-11-12T02:25:31.713Z,94140.44
2022-11-12T02:28:17.548Z,94138.34
2022-11-12T02:31:02.463Z,94133.69
2022-11-12T02:33:47.359Z,94133.53
2022-11-12T02:36:32.191Z,94134.00
2022-11-12T02:39:17.118Z,94142.41
2022-11-12T02:42:01.861Z,94143.09
2022-11-12T02:44:47.138Z,94136.97
2022-11-12T02:47:32.376Z,94144.25
2022-11-12T02:50:17.844Z,94139.28
2022-11-12T02:53:03.129Z,94136.84
2022-11-12T02:55:48.216Z,94134.09
2022-11-12T02:58:33.113Z,94143.97
2022-11-12T03:01:17.880Z,94133.63
2022-11-12T03:04:02.715Z,94137.47
2022-11-12T03:06:47.650Z,94132.16
2022-11-12T03:09:32.562Z,94134.22
2022-11-12T03:12:17.635Z,94133.13
2022-11-12T03:15:02.500Z,94131.84
2022-11-12T03:17:47.752Z,94126.34
2022-11-12T03:20:34.636Z,94129.09
2022-11-12T03:23:19.740Z,94135.41
2022-11-12T03:26:05.308Z,94129.28
2022-11-12T03:28:53.549Z,94132.34
2022-11-12T03:31:39.300Z,94132.78
2022-11-12T03:34:24.324Z,94125.88
2022-11-12T03:37:09.549Z,94133.47
2022-11-12T03:39:55.005Z,94126.50
2022-11-12T03:42:45.135Z,94122.78
2022-11-12T03:45:30.241Z,94116.97
2022-11-12T03:48:15.100Z,94117.94
2022-11-12T03:51:00.256Z,94126.69
2022-11-12T03:53:45.170Z,94117.31
2022-11-12T03:56:29.983Z,94114.44
2022-11-12T03:59:14.886Z,94114.63
2022-11-12T04:01:59.913Z,94113.00
2022-11-12T04:05:03.587Z,94111.38
2022-11-12T04:08:08.695Z,94112.84
2022-11-12T04:10:54.627Z,94098.47
2022-11-12T04:13:41.990Z,94107.69
2022-11-12T04:16:46.053Z,94105.44
2022-11-12T04:19:49.989Z,94097.34
2022-11-12T04:22:35.224Z,94101.53
2022-11-12T04:25:38.701Z,94097.34
2022-11-12T04:28:24.050Z,94101.53
2022-11-12T04:31:09.200Z,94094.47
2022-11-12T04:33:54.114Z,94101.25
2022-11-12T04:36:38.979Z,94091.53
2022-11-12T04:39:23.905Z,94101.25
2022-11-12T04:42:28.871Z,94101.25
2022-11-12T04:45:14.021Z,94101.25
2022-11-12T04:47:58.830Z,94099.94
2022-11-12T04:50:46.573Z,94095.59
2022-11-12T04:53:31.393Z,94103.50
2022-11-12T04:56:16.624Z,94106.41
2022-11-12T04:59:01.632Z,94111.44
2022-11-12T05:01:46.527Z,94112.06
2022-11-12T05:04:31.321Z,94114.47
2022-11-12T05:07:16.724Z,94118.50
2022-11-12T05:10:01.804Z,94119.19
2022-11-12T05:12:46.855Z,94118.03
2022-11-12T05:15:31.763Z,94119.66
2022-11-12T05:18:16.647Z,94115.50
2022-11-12T05:21:21.539Z,94106.47
2022-11-12T05:24:07.055Z,94106.94
2022-11-12T05:26:52.377Z,94100.66
2022-11-12T05:29:37.716Z,94095.78
2022-11-12T05:32:22.760Z,94096.59
2022-11-12T05:35:07.907Z,94100.31
2022-11-12T05:37:53.022Z,94093.69
2022-11-12T05:40:37.832Z,94094.50
2022-11-12T05:43:22.736Z,94088.53
2022-11-12T05:46:07.740Z,94094.66
2022-11-12T05:48:52.845Z,94095.63
2022-11-12T05:51:37.826Z,94103.38
2022-11-12T05:54:24.879Z,94097.41
2022-11-12T05:57:09.843Z,94104.50
2022-11-12T05:59:54.969Z,94112.59
2022-11-12T06:02:39.826Z,94110.50
2022-11-12T06:05:24.522Z,94106.13
2022-11-12T06:08:09.355Z,94115.47
2022-11-12T06:10:55.006Z,94116.16
2022-11-12T06:13:40.096Z,94122.75
2022-11-12T06:16:25.077Z,94126.16
2022-11-12T06:19:09.922Z,94136.16
2022-11-12T06:21:54.789Z,94138.09
2022-11-12T06:24:40.105Z,94139.41
2022-11-12T06:27:25.263Z,94145.53
2022-11-12T06:30:10.731Z,94143.59
2022-11-12T06:32:55.546Z,94142.63
2022-11-12T06:35:43.167Z,94141.50
2022-11-12T06:38:32.913Z,94133.28
2022-11-12T06:41:17.728Z,94135.03
2022-11-12T06:44:04.813Z,94135.84
2022-11-12T06:46:50.538Z,94130.03
2022-11-12T06:49:35.722Z,94128.75
2022-11-12T06:52:20.748Z,94127.44
2022-11-12T06:55:05.950Z,94122.28
2022-11-12T06:57:52.669Z,94118.56
2022-11-12T07:00:37.641Z,94116.13
2022-11-12T07:03:22.763Z,94114.53
2022-11-12T07:06:18.979Z,94124.53
2022-11-12T07:09:05.396Z,94121.00
2022-11-12T07:11:50.514Z,94125.81
2022-11-12T07:14:35.362Z,94125.31
2022-11-12T07:17:20.182Z,94126.75
2022-11-12T07:20:05.425Z,94127.72
2022-11-12T07:22:50.387Z,94127.56
2022-11-12T07:25:35.224Z,94132.72
2022-11-12T07:28:20.116Z,94135.75
2022-11-12T07:31:07.556Z,94137.72
2022-11-12T07:33:53.025Z,94132.84
2022-11-12T07:36:38.165Z,94131.03
2022-11-12T07:39:22.942Z,94136.16
2022-11-12T07:42:08.052Z,94137.13
2022-11-12T07:44:53.170Z,94140.00
2022-11-12T07:47:38.027Z,94138.19
2022-11-12T07:50:22.952Z,94144.31
2022-11-12T07:53:07.835Z,94143.66
2022-11-12T07:55:54.845Z,94147.50
2022-11-12T07:58:40.167Z,94149.28
2022-11-12T08:01:32.502Z,94145.06
2022-11-12T08:04:17.666Z,94146.78
2022-11-12T08:07:02.708Z,94149.31
2022-11-12T08:09:48.145Z,94151.84
2022-11-12T08:12:33.327Z,94155.19
2022-11-12T08:15:18.180Z,94149.78
2022-11-12T08:18:02.990Z,94148.81
2022-11-12T08:20:47.807Z,94152.97
2022-11-12T08:23:32.858Z,94150.16
2022-11-12T08:26:19.845Z,94155.81
2022-11-12T08:29:08.576Z,94152.78
2022-11-12T08:31:53.799Z,94148.81
2022-11-12T08:34:41.241Z,94151.94
2022-11-12T08:37:26.185Z,94156.09
2022-11-12T08:40:12.218Z,94141.97
2022-11-12T08:43:04.869Z,94141.72
2022-11-12T08:45:50.156Z,94133.50
2022-11-12T08:48:37.093Z,94128.75
2022-11-12T08:51:22.149Z,94129.44
2022-11-12T08:54:06.949Z,94132.13
2022-11-12T08:56:51.794Z,94130.41
2022-11-12T08:59:36.667Z,94128.00
2022-11-12T09:02:22.097Z,94142.38
2022-11-12T09:05:07.292Z,94137.75
2022-11-12T09:07:59.659Z,94140.50
2022-11-12T09:10:45.776Z,94143.88
2022-11-12T09:13:31.174Z,94140.34
2022-11-12T09:16:15.876Z,94135.63
2022-11-12T09:19:00.717Z,94140.16
2022-11-12T09:21:45.661Z,94139.06
2022-11-12T09:24:30.648Z,94132.00
2022-11-12T09:27:15.635Z,94131.31
2022-11-12T09:30:00.532Z,94136.84
2022-11-12T09:32:45.533Z,94126.72
2022-11-12T09:35:31.200Z,94132.59
2022-11-12T09:38:17.996Z,94129.28
2022-11-12T09:41:10.916Z,94134.34
2022-11-12T09:44:03.189Z,94135.81
2022-11-12T09:46:59.814Z,94130.66
2022-11-12T09:49:50.223Z,94128.84
2022-11-12T09:52:37.017Z,94132.88
2022-11-12T09:55:25.925Z,94125.84
2022-11-12T09:58:15.486Z,94132.25
2022-11-12T10:01:07.540Z,94133.41
2022-11-12T10:03:58.580Z,94121.69
2022-11-12T10:06:54.642Z,94121.06
2022-11-12T10:10:03.265Z,94114.72
2022-11-12T10:13:04.848Z,94124.31
2022-11-12T10:16:36.808Z,94116.16
2022-11-12T10:19:53.473Z,94108.00
2022-11-12T10:23:01.545Z,94113.09
2022-11-12T10:25:49.322Z,94106.09
2022-11-12T10:28:42.083Z,94096.19
2022-11-12T10:31:27.197Z,94095.44
2022-11-12T10:34:16.626Z,94090.47
2022-11-12T10:37:06.060Z,94085.16
2022-11-12T10:39:51.512Z,94086.63
2022-11-12T10:42:56.821Z,94083.72
2022-11-12T10:45:45.957Z,94091.56
2022-11-12T10:48:34.089Z,94079.25
2022-11-12T10:51:26.784Z,94081.00
2022-11-12T10:54:22.274Z,94072.06
2022-11-12T10:57:27.258Z,94071.06
2022-11-12T11:00:18.109Z,94068.34
2022-11-12T11:03:07.412Z,94073.75
2022-11-12T11:05:59.211Z,94063.66
2022-11-12T11:08:49.384Z,94055.88
2022-11-12T11:11:34.688Z,94059.28
2022-11-12T11:14:22.827Z,94052.19
2022-11-12T11:17:16.569Z,94045.00
2022-11-12T11:20:03.433Z,94046.22
2022-11-12T11:22:54.447Z,94039.22
2022-11-12T11:25:39.579Z,94042.63
2022-11-12T11:28:50.467Z,94035.09
2022-11-12T11:31:55.439Z,94039.00
2022-11-12T11:34:52.826Z,94025.28
2022-11-12T11:37:58.540Z,94029.09
2022-11-12T11:40:54.333Z,94024.69
2022-11-12T11:44:01.760Z,94020.75
2022-11-12T11:47:16.261Z,94026.25
2022-11-12T11:50:13.078Z,94009.41
2022-11-12T11:53:11.464Z,94009.81
2022-11-12T11:56:01.206Z,94010.44
2022-11-12T11:59:02.754Z,94013.47
2022-11-12T12:02:11.217Z,94014.88
2022-11-12T12:05:21.829Z,94004.78
2022-11-12T12:08:06.983Z,94001.19
2022-11-12T12:11:11.975Z,94000.25
2022-11-12T12:14:25.020Z,93994.59
2022-11-12T12:17:39.958Z,93996.56
2022-11-12T12:20:33.764Z,93992.44
2022-11-12T12:23:46.058Z,93993.63
2022-11-12T12:26:35.782Z,93984.41
2022-11-12T12:29:30.776Z,93990.47
2022-11-12T12:32:26.989Z,93982.16
2022-11-12T12:35:28.216Z,93985.31
2022-11-12T12:38:45.405Z,93985.59
2022-11-12T12:41:33.442Z,93979.25
2022-11-12T12:44:18.509Z,93993.28
2022-11-12T12:47:03.960Z,93988.00
2022-11-12T12:49:50.600Z,93988.00
2022-11-12T12:52:54.129Z,93990.09
2022-11-12T12:55:48.391Z,93983.50
2022-11-12T12:58:41.165Z,93983.22
2022-11-12T13:01:37.268Z,93981.13
2022-11-12T13:04:58.085Z,93987.44
2022-11-12T13:07:45.711Z,93983.72
2022-11-12T13:10:36.945Z,93986.47
2022-11-12T13:13:21.741Z,93983.06
2022-11-12T13:16:07.405Z,93975.16
2022-11-12T13:18:52.198Z,93973.53
2022-11-12T13:21:37.283Z,93970.56
2022-11-12T13:25:00.756Z,93959.47
2022-11-12T13:27:45.657Z,93956.16
2022-11-12T13:30:30.622Z,93962.50
2022-11-12T13:33:30.618Z,93960.63
2022-11-12T13:36:24.957Z,93959.56
2022-11-12T13:39:16.685Z,93959.06
2022-11-12T13:42:31.452Z,93965.31
2022-11-12T13:45:23.550Z,93963.44
2022-11-12T13:48:15.112Z,93966.22
2022-11-12T13:51:04.517Z,93974.00
2022-11-12T13:53:49.520Z,93973.94
2022-11-12T13:56:36.025Z,93974.84
2022-11-12T13:59:24.186Z,93973.19
2022-11-12T14:02:24.997Z,93968.41
2022-11-12T14:05:15.824Z,93965.13
2022-11-12T14:08:29.429Z,93963.81
2022-11-12T14:11:32.735Z,93957.81
2022-11-12T14:14:41.881Z,93963.53
2022-11-12T14:17:54.756Z,93957.31
2022-11-12T14:20:41.062Z,93955.06
2022-11-12T14:23:26.557Z,93948.69
2022-11-12T14:26:13.133Z,93950.09
2022-11-12T14:28:59.148Z,93946.34
2022-11-12T14:31:44.337Z,93949.94
2022-11-12T14:34:32.179Z,93945.63
2022-11-12T14:37:39.894Z,93944.28
2022-11-12T14:40:30.810Z,93943.31
2022-11-12T14:43:27.418Z,93941.63
2022-11-12T14:46:26.641Z,93943.84
2022-11-12T14:49:21.663Z,93939.81
2022-11-12T14:52:16.939Z,93943.06
2022-11-12T14:55:13.508Z,93940.00
2022-11-12T14:57:59.745Z,93944.28
2022-11-12T15:00:46.651Z,93937.88
2022-11-12T15:03:32.692Z,93936.44
2022-11-12T15:06:29.865Z,93939.44
2022-11-12T15:09:18.699Z,93932.94
2022-11-12T15:12:12.572Z,93927.50
2022-11-12T15:15:20.898Z,93927.84
2022-11-12T15:18:13.868Z,93922.97
2022-11-12T15:21:14.401Z,93926.53
2022-11-12T15:24:16.452Z,93925.06
2022-11-12T15:27:22.121Z,93932.94
2022-11-12T15:30:26.045Z,93934.19
2022-11-12T15:33:11.027Z,93931.91
2022-11-12T15:36:00.852Z,93940.13
2022-11-12T15:38:51.584Z,93926.44
2022-11-12T15:41:36.653Z,93926.91
2022-11-12T15:44:21.570Z,93925.41
2022-11-12T15:47:13.614Z,93925.28
2022-11-12T15:49:59.228Z,93931.31
2022-11-12T15:52:45.232Z,93935.06
2022-11-12T15:55:32.686Z,93923.75
2022-11-12T15:58:30.481Z,93916.81
2022-11-12T16:01:15.820Z,93913.13
2022-11-12T16:04:00.601Z,93909.00
2022-11-12T16:06:45.544Z,93909.09
2022-11-12T16:09:30.317Z,93908.06
2022-11-12T16:12:15.834Z,93904.38
2022-11-12T16:15:01.520Z,93904.91
2022-11-12T16:17:48.577Z,93909.44
2022-11-12T16:20:35.664Z,93913.97
2022-11-12T16:23:20.700Z,93899.91
2022-11-12T16:26:08.706Z,93889.19
2022-11-12T16:28:53.784Z,93899.56
2022-11-12T16:31:40.845Z,93903.03
2022-11-12T16:34:25.785Z,93905.53
2022-11-12T16:37:12.880Z,93913.81
2022-11-12T16:39:57.942Z,93915.16
2022-11-12T16:42:45.743Z,93909.75
2022-11-12T16:45:38.710Z,93917.66
2022-11-12T16:48:23.686Z,93907.56
2022-11-12T16:51:16.554Z,93903.03
2022-11-12T16:54:01.968Z,93898.06
2022-11-12T16:56:47.146Z,93900.97
2022-11-12T16:59:32.103Z,93895.50
2022-11-12T17:02:17.001Z,93898.94
2022-11-12T17:05:03.826Z,93900.53
2022-11-12T17:07:49.239Z,93889.50
2022-11-12T17:10:34.063Z,93888.91
2022-11-12T17:13:18.925Z,93891.72
2022-11-12T17:16:04.370Z,93886.31
2022-11-12T17:18:53.303Z,93885.53
2022-11-12T17:21:38.350Z,93880.38
2022-11-12T17:24:26.384Z,93877.41
2022-11-12T17:27:11.805Z,93876.19
2022-11-12T17:29:56.593Z,93870.25
2022-11-12T17:32:41.439Z,93867.91
2022-11-12T17:35:26.576Z,93864.09
2022-11-12T17:38:11.608Z,93862.56
2022-11-12T17:40:57.533Z,93857.16
2022-11-12T17:43:42.819Z,93857.59
2022-11-12T17:46:29.064Z,93862.44
2022-11-12T17:49:15.100Z,93854.81
2022-11-12T17:52:00.326Z,93858.47
2022-11-12T17:54:45.282Z,93856.09
2022-11-12T17:57:30.241Z,93853.69
2022-11-12T18:00:16.088Z,93851.06
2022-11-12T18:03:00.859Z,93857.59
2022-11-12T18:05:45.952Z,93851.00
2022-11-12T18:08:31.086Z,93857.44
2022-11-12T18:11:15.929Z,93865.47
2022-11-12T18:14:06.587Z,93866.47
2022-11-12T18:16:51.765Z,93863.09
2022-11-12T18:19:36.945Z,93861.13
2022-11-12T18:22:21.849Z,93863.63
2022-11-12T18:25:07.174Z,93864.50
2022-11-12T18:27:52.028Z,93864.34
2022-11-12T18:30:37.602Z,93856.31
2022-11-12T18:33:22.688Z,93853.13
2022-11-12T18:36:09.961Z,93851.31
2022-11-12T18:38:55.568Z,93846.09
2022-11-12T18:41:40.787Z,93848.94
2022-11-12T18:44:26.308Z,93853.50
2022-11-12T18:47:11.271Z,93849.09
2022-11-12T18:49:55.960Z,93838.31
2022-11-12T18:52:40.894Z,93839.31
2022-11-12T18:55:25.709Z,93841.34
2022-11-12T18:58:10.505Z,93839.13
2022-11-12T19:00:55.540Z,93843.56
2022-11-12T19:03:40.266Z,93851.59
2022-11-12T19:06:25.390Z,93847.97
2022-11-12T19:09:11.784Z,93849.00
2022-11-12T19:11:56.829Z,93846.00
2022-11-12T19:14:41.655Z,93845.81
2022-11-12T19:17:30.881Z,93848.22
2022-11-12T19:20:16.673Z,93847.81
2022-11-12T19:23:01.690Z,93839.59
2022-11-12T19:25:46.490Z,93845.00
2022-11-12T19:28:31.426Z,93845.81
2022-11-12T19:31:21.899Z,93836.97
2022-11-12T19:34:06.949Z,93834.59
2022-11-12T19:37:11.937Z,93831.38
2022-11-12T19:39:56.762Z,93835.78
2022-11-12T19:42:41.634Z,93825.75
2022-11-12T19:45:26.489Z,93829.34
2022-11-12T19:48:11.273Z,93820.56
2022-11-12T19:51:01.006Z,93818.97
2022-11-12T19:53:46.175Z,93827.94
2022-11-12T19:56:33.208Z,93821.75
2022-11-12T19:59:18.789Z,93822.34
2022-11-12T20:02:03.806Z,93825.16
2022-11-12T20:04:48.745Z,93820.94
2022-11-12T20:07:33.744Z,93814.91
2022-11-12T20:10:18.934Z,93818.09
2022-11-12T20:13:03.794Z,93814.50
2022-11-12T20:15:49.592Z,93811.50
2022-11-12T20:18:34.714Z,93803.66
2022-11-12T20:21:19.809Z,93796.66
2022-11-12T20:24:04.966Z,93798.06
2022-11-12T20:26:49.887Z,93799.44
2022-11-12T20:29:34.814Z,93785.97
2022-11-12T20:32:22.332Z,93780.78
2022-11-12T20:35:15.187Z,93787.56
2022-11-12T20:38:04.116Z,93783.16
2022-11-12T20:40:57.172Z,93775.91
2022-11-12T20:43:42.151Z,93778.94
2022-11-12T20:46:28.087Z,93777.53
2022-11-12T20:49:13.150Z,93776.50
2022-11-12T20:51:58.153Z,93782.34
2022-11-12T20:54:43.258Z,93775.28
2022-11-12T20:57:28.350Z,93782.28
2022-11-12T21:00:17.729Z,93782.84
2022-11-12T21:03:05.919Z,93782.63
2022-11-12T21:06:00.295Z,93785.22
2022-11-12T21:08:45.306Z,93787.41
2022-11-12T21:11:30.734Z,93783.78
2022-11-12T21:14:15.981Z,93788.56
2022-11-12T21:17:00.867Z,93785.34
2022-11-12T21:19:45.740Z,93779.31
2022-11-12T21:22:32.004Z,93778.47
2022-11-12T21:25:17.161Z,93773.06
2022-11-12T21:28:02.305Z,93774.38
2022-11-12T21:30:47.426Z,93767.56
2022-11-12T21:33:32.423Z,93763.75
2022-11-12T21:36:17.996Z,93763.97
2022-11-12T21:39:04.577Z,93758.34
2022-11-12T21:41:49.464Z,93755.53
2022-11-12T21:44:34.827Z,93747.41
2022-11-12T21:47:19.998Z,93737.00
2022-11-12T21:50:05.571Z,93734.78
2022-11-12T21:52:50.739Z,93726.38
2022-11-12T21:55:35.468Z,93723.13
2022-11-12T21:58:20.241Z,93729.75
2022-11-12T22:01:22.775Z,93731.13
2022-11-12T22:04:08.007Z,93728.31
2022-11-12T22:06:52.866Z,93723.91
2022-11-12T22:09:37.672Z,93718.66
2022-11-12T22:12:22.410Z,93708.84
2022-11-12T22:15:07.616Z,93705.06
2022-11-12T22:17:52.966Z,93698.66
2022-11-12T22:20:38.012Z,93698.28
2022-11-12T22:23:22.881Z,93698.28
2022-11-12T22:26:11.613Z,93689.72
2022-11-12T22:28:58.292Z,93689.06
2022-11-12T22:31:43.278Z,93692.63
2022-11-12T22:34:28.203Z,93681.63
2022-11-12T22:37:12.936Z,93678.03
2022-11-12T22:39:57.813Z,93680.41
2022-11-12T22:42:42.502Z,93680.19
2022-11-12T22:45:27.421Z,93680.19
2022-11-12T22:48:12.274Z,93663.34
2022-11-12T22:51:01.768Z,93662.16
2022-11-12T22:53:47.747Z,93666.94
2022-11-12T22:56:33.298Z,93662.97
2022-11-12T22:59:18.081Z,93659.31
2022-11-12T23:02:03.052Z,93652.53
2022-11-12T23:04:47.838Z,93651.53
2022-11-12T23:07:32.838Z,93645.19
2022-11-12T23:10:17.636Z,93647.78
2022-11-12T23:13:02.668Z,93640.19
2022-11-12T23:15:47.325Z,93634.75
2022-11-12T23:18:32.092Z,93634.16
2022-11-12T23:21:19.488Z,93640.94
2022-11-12T23:24:04.816Z,93636.09
2022-11-12T23:26:49.941Z,93630.09
2022-11-12T23:29:34.875Z,93630.09
2022-11-12T23:32:19.692Z,93635.28
2022-11-12T23:35:04.820Z,93630.91
2022-11-12T23:37:49.776Z,93627.13
2022-11-12T23:40:34.645Z,93625.28
2022-11-12T23:43:19.502Z,93628.25
2022-11-12T23:46:04.568Z,93615.63
2022-11-12T23:48:49.881Z,93615.94
2022-11-12T23:51:34.948Z,93612.38
2022-11-12T23:54:19.731Z,93611.56
2022-11-12T23:57:04.591Z,93608.56
2022-11-12T23:59:49.367Z,93613.31
